CCX3 weather

Brockway Airport
Brockway, New Brunswick, Canada

Public forecast

Using degrees Celsius for public forecast. Weather courtesy of forecast.io.

METAR (pilot weather report)

Closest report is Fredericton Airport, 29.8 nm (55.1 km) NE. Retrieved 2019/08/21 01:00 UTC (47 minutes ago):

CYFC 210100Z AUTO 22006KT 9SM CLR 18/14 A2998 RMK SLP153 DENSITY ALT 300FT

TAF (pilot weather forecast)

Forecast is more than 12 hours old.

Closest forecast is Fredericton Airport, 29.8 nm (55.1 km) NE. Retrieved 2019/08/20 00:42 UTC (1 day ago):

TAF CYFC 202338Z 2100/2112 25006KT P6SM SKC BECMG 2100/2102 21006KT RMK FCST BASED ON AUTO OBS. NXT FCST BY 210600Z